Time;durP1;ratioP1;P1;durP2;ratioP2;P2;SDS_P1;SDS_P2;PMS_P1;PMS_P2;Temp;Humidity;BMP_temperature;BMP_pressure;BME280_temperature;BME280_humidity;BME280_pressure;Samples;Min_cycle;Max_cycle;Signal;HPM_P1;HPM_P2
2021/04/06 00:00:14;;;;;;;5.28;1.98;;;1.50;99.90;;;;;;5072824;28;20055;-70
2021/04/06 00:02:44;;;;;;;6.50;1.27;;;1.60;99.90;;;;;;5071622;28;20028;-70
2021/04/06 00:05:12;;;;;;;4.72;1.42;;;1.50;99.90;;;;;;5073387;28;20032;-70
2021/04/06 00:07:39;;;;;;;6.80;2.05;;;1.60;99.90;;;;;;5072744;28;20060;-70
2021/04/06 00:10:24;;;;;;;4.85;1.20;;;1.60;99.90;;;;;;5072801;28;20090;-70
2021/04/06 00:12:54;;;;;;;6.63;1.42;;;1.50;99.90;;;;;;5072894;28;20150;-68
2021/04/06 00:15:22;;;;;;;2.85;1.23;;;1.50;99.90;;;;;;5071449;28;20020;-69
2021/04/06 00:17:50;;;;;;;4.85;1.52;;;1.50;99.90;;;;;;5072899;28;20020;-68
2021/04/06 00:20:17;;;;;;;7.65;1.95;;;1.40;99.90;;;;;;5075064;28;20539;-69
2021/04/06 00:22:45;;;;;;;5.80;1.85;;;1.40;99.90;;;;;;5076592;28;20032;-70
2021/04/06 00:25:15;;;;;;;8.75;1.95;;;1.40;99.90;;;;;;5076657;28;20021;-69
2021/04/06 00:27:44;;;;;;;7.45;2.25;;;1.40;99.90;;;;;;5076903;28;20052;-69
2021/04/06 00:30:18;;;;;;;5.03;2.30;;;1.30;99.90;;;;;;5076523;28;20055;-69
2021/04/06 00:32:44;;;;;;;7.43;2.10;;;1.30;99.90;;;;;;5076409;28;20074;-69
2021/04/06 00:35:11;;;;;;;4.80;1.95;;;1.30;99.90;;;;;;5076714;28;20032;-69
2021/04/06 00:37:48;;;;;;;4.60;1.90;;;1.20;99.90;;;;;;5075037;28;20031;-69
2021/04/06 00:40:15;;;;;;;3.97;2.05;;;1.20;99.90;;;;;;5076448;28;20206;-69
2021/04/06 00:42:42;;;;;;;5.38;2.10;;;1.20;99.90;;;;;;5076363;28;20032;-69
2021/04/06 00:45:17;;;;;;;6.63;2.10;;;1.20;99.90;;;;;;5076472;28;20051;-69
2021/04/06 00:47:43;;;;;;;8.02;2.72;;;1.20;99.90;;;;;;5075954;28;20436;-69
2021/04/06 00:50:15;;;;;;;4.93;1.58;;;1.10;99.90;;;;;;5076652;28;20024;-69
2021/04/06 00:52:45;;;;;;;6.07;2.00;;;1.10;99.90;;;;;;5076207;28;20555;-69
2021/04/06 00:55:17;;;;;;;6.95;1.75;;;1.10;99.90;;;;;;5076358;28;20028;-69
2021/04/06 00:57:44;;;;;;;5.93;1.80;;;1.00;99.90;;;;;;5074481;28;20493;-68
2021/04/06 01:00:36;;;;;;;3.75;1.33;;;1.00;99.90;;;;;;5076057;28;20016;-69
2021/04/06 01:03:07;;;;;;;5.35;1.67;;;1.00;99.90;;;;;;5075237;28;20024;-68
2021/04/06 01:05:35;;;;;;;7.95;2.58;;;1.00;99.90;;;;;;5077756;28;20020;-65
2021/04/06 01:08:06;;;;;;;4.57;1.52;;;0.90;99.90;;;;;;5077440;28;20029;-65
2021/04/06 01:10:33;;;;;;;3.92;2.03;;;0.90;99.90;;;;;;5076165;28;20108;-65
2021/04/06 01:13:00;;;;;;;8.80;2.17;;;0.90;99.90;;;;;;5077722;28;20385;-66
2021/04/06 01:15:27;;;;;;;4.75;1.70;;;0.90;99.90;;;;;;5076697;28;20119;-65
2021/04/06 01:17:53;;;;;;;5.78;1.50;;;0.90;99.90;;;;;;5077576;28;20071;-65
2021/04/06 01:20:20;;;;;;;6.47;1.55;;;0.90;99.90;;;;;;5076818;28;20029;-65
2021/04/06 01:22:46;;;;;;;;;;;0.90;99.90;;;;;;5077589;28;20052;-66
2021/04/06 01:25:17;;;;;;;5.38;1.55;;;1.00;99.90;;;;;;5079232;28;19912;-66
2021/04/06 01:27:43;;;;;;;3.33;1.40;;;1.00;99.90;;;;;;5079961;28;20105;-66
2021/04/06 01:30:10;;;;;;;4.60;1.23;;;1.00;99.90;;;;;;5078876;28;20044;-66
2021/04/06 01:32:36;;;;;;;7.32;1.40;;;1.00;99.90;;;;;;5079326;28;20025;-66
2021/04/06 01:35:06;;;;;;;6.13;1.52;;;1.00;99.90;;;;;;5078055;28;20032;-66
2021/04/06 01:37:32;;;;;;;6.03;1.40;;;1.00;99.90;;;;;;5075660;28;20040;-67
2021/04/06 01:39:59;;;;;;;4.05;1.40;;;1.10;99.90;;;;;;5074081;28;20017;-67
2021/04/06 01:42:29;;;;;;;7.95;1.50;;;1.10;99.90;;;;;;5075437;28;20029;-67
2021/04/06 01:44:56;;;;;;;4.43;1.20;;;1.10;99.90;;;;;;5073968;28;20036;-66
2021/04/06 01:47:25;;;;;;;4.68;1.23;;;1.10;99.90;;;;;;5075600;28;20113;-66
2021/04/06 01:49:51;;;;;;;4.95;1.42;;;1.10;99.90;;;;;;5075237;28;20029;-66
2021/04/06 01:52:17;;;;;;;6.22;1.55;;;1.10;99.90;;;;;;5075434;28;20439;-66
2021/04/06 01:54:49;;;;;;;6.03;1.40;;;1.10;99.90;;;;;;5075286;28;20039;-66
2021/04/06 01:57:19;;;;;;;7.90;1.20;;;1.00;99.90;;;;;;5074723;28;20107;-67
2021/04/06 01:59:52;;;;;;;4.47;1.20;;;1.00;99.90;;;;;;5075113;28;20016;-66
2021/04/06 02:02:24;;;;;;;7.22;1.65;;;1.00;99.90;;;;;;5073628;28;20070;-67
2021/04/06 02:04:57;;;;;;;5.90;1.60;;;1.00;99.90;;;;;;5074861;28;20045;-66
2021/04/06 02:07:31;;;;;;;2.10;1.30;;;0.90;99.90;;;;;;5074890;28;20385;-66
2021/04/06 02:10:01;;;;;;;4.70;1.70;;;0.90;99.90;;;;;;5074818;28;20024;-66
2021/04/06 02:12:27;;;;;;;7.30;1.90;;;1.00;99.90;;;;;;5074260;28;20058;-66
2021/04/06 02:14:57;;;;;;;7.57;1.73;;;1.00;99.90;;;;;;5075734;28;20506;-66
2021/04/06 02:17:22;;;;;;;5.53;1.45;;;0.90;99.90;;;;;;5075072;28;20503;-67
2021/04/06 02:19:48;;;;;;;5.53;2.43;;;0.90;99.90;;;;;;5075451;28;20052;-66
2021/04/06 02:22:16;;;;;;;7.67;1.80;;;1.00;99.90;;;;;;5074717;28;20073;-66
2021/04/06 02:24:43;;;;;;;3.85;2.00;;;1.00;99.90;;;;;;5074762;28;20032;-66
2021/04/06 02:27:19;;;;;;;8.93;1.73;;;1.00;99.90;;;;;;5074779;28;20024;-67
2021/04/06 02:29:45;;;;;;;6.82;1.67;;;1.00;99.90;;;;;;5072805;28;20027;-67
2021/04/06 02:32:12;;;;;;;;;;;0.80;99.90;;;;;;5073374;28;20109;-67
2021/04/06 02:34:40;;;;;;;3.85;1.60;;;0.80;99.90;;;;;;5074257;28;19905;-67
2021/04/06 02:37:23;;;;;;;6.63;1.88;;;0.90;99.90;;;;;;5072951;28;20485;-65
2021/04/06 02:39:50;;;;;;;4.40;1.75;;;1.00;99.90;;;;;;5074247;28;20025;-65
2021/04/06 02:42:21;;;;;;;5.95;1.65;;;1.00;99.90;;;;;;5073623;28;20013;-65
2021/04/06 02:44:47;;;;;;;7.30;2.00;;;1.00;99.90;;;;;;5074065;28;20032;-66
2021/04/06 02:47:13;;;;;;;5.90;2.00;;;1.00;99.90;;;;;;5073990;28;20030;-66
2021/04/06 02:49:39;;;;;;;7.50;1.80;;;1.10;99.90;;;;;;5074028;28;20100;-66
2021/04/06 02:52:05;;;;;;;9.80;2.60;;;1.10;99.90;;;;;;5072393;28;20123;-67
2021/04/06 02:54:32;;;;;;;4.18;1.45;;;1.10;99.90;;;;;;5073814;28;20042;-67
2021/04/06 02:56:57;;;;;;;3.95;1.17;;;1.10;99.90;;;;;;5072155;28;20103;-66
2021/04/06 02:59:23;;;;;;;5.27;1.80;;;1.20;99.90;;;;;;5073653;28;20059;-66
2021/04/06 03:01:57;;;;;;;4.73;2.00;;;1.20;99.90;;;;;;5072251;28;20020;-66
2021/04/06 03:04:25;;;;;;;6.32;1.55;;;1.20;99.90;;;;;;5072052;28;20082;-66
2021/04/06 03:06:52;;;;;;;7.45;1.80;;;1.20;99.90;;;;;;5073800;28;20025;-66
2021/04/06 03:09:23;;;;;;;5.40;2.28;;;1.20;99.90;;;;;;5072209;28;20028;-67
2021/04/06 03:11:51;;;;;;;7.28;1.63;;;1.20;99.90;;;;;;5072019;28;20161;-67
2021/04/06 03:14:20;;;;;;;6.88;2.95;;;1.20;99.90;;;;;;5073325;28;20028;-66
2021/04/06 03:16:49;;;;;;;7.38;1.75;;;1.20;99.90;;;;;;5073256;28;20028;-66
2021/04/06 03:19:14;;;;;;;5.60;2.03;;;1.20;99.90;;;;;;5073168;28;20012;-67
2021/04/06 03:21:41;;;;;;;4.07;1.70;;;1.20;99.90;;;;;;5073776;28;20020;-66
2021/04/06 03:24:09;;;;;;;7.07;1.77;;;1.20;99.90;;;;;;5073185;28;20107;-66
2021/04/06 03:26:35;;;;;;;7.82;2.08;;;1.30;99.90;;;;;;5073150;28;20043;-67
2021/04/06 03:29:02;;;;;;;7.78;1.75;;;1.30;99.90;;;;;;5073072;28;20025;-67
2021/04/06 03:31:31;;;;;;;9.10;1.95;;;1.30;99.90;;;;;;5071863;28;20070;-66
2021/04/06 03:33:58;;;;;;;8.75;1.50;;;1.30;99.90;;;;;;5073602;28;20358;-66
2021/04/06 03:36:25;;;;;;;9.90;1.98;;;1.30;99.90;;;;;;5071921;28;20025;-66
2021/04/06 03:38:57;;;;;;;7.20;1.85;;;1.30;99.90;;;;;;5073549;28;20440;-67
2021/04/06 03:41:26;;;;;;;8.52;2.17;;;1.30;99.90;;;;;;5073618;28;20052;-66
2021/04/06 03:43:53;;;;;;;10.43;1.83;;;1.30;99.90;;;;;;5072365;28;20077;-67
2021/04/06 03:46:26;;;;;;;10.00;2.20;;;1.30;99.90;;;;;;5073692;28;20032;-67
2021/04/06 03:48:52;;;;;;;9.52;1.90;;;1.40;99.90;;;;;;5073461;28;20526;-66
2021/04/06 03:51:28;;;;;;;11.57;2.08;;;1.40;99.90;;;;;;5073910;28;20063;-66
2021/04/06 03:53:55;;;;;;;5.80;1.80;;;1.40;99.90;;;;;;5073483;28;20064;-67
2021/04/06 03:56:32;;;;;;;8.35;2.35;;;1.30;99.90;;;;;;5072150;28;20056;-66
2021/04/06 03:59:01;;;;;;;5.95;2.08;;;1.40;99.90;;;;;;5074508;28;20107;-67
2021/04/06 04:01:27;;;;;;;8.10;1.77;;;1.40;99.90;;;;;;5072364;28;20485;-66
2021/04/06 04:03:56;;;;;;;11.10;2.25;;;1.40;99.90;;;;;;5073003;28;20029;-67
2021/04/06 04:06:26;;;;;;;8.63;1.60;;;1.30;99.90;;;;;;5072827;28;20064;-67
2021/04/06 04:08:52;;;;;;;7.95;1.92;;;1.40;99.90;;;;;;5072683;28;20060;-66
2021/04/06 04:11:19;;;;;;;9.63;2.10;;;1.40;99.90;;;;;;5072783;28;20074;-66
2021/04/06 04:13:46;;;;;;;8.52;1.80;;;1.40;99.90;;;;;;5072728;28;20481;-66
2021/04/06 04:16:12;;;;;;;7.38;1.95;;;1.40;99.90;;;;;;5071624;28;20029;-67
2021/04/06 04:18:38;;;;;;;7.20;1.83;;;1.40;99.90;;;;;;5072645;28;20099;-66
2021/04/06 04:21:04;;;;;;;9.57;2.10;;;1.40;99.90;;;;;;5071526;28;20508;-66
2021/04/06 04:23:30;;;;;;;;;;;1.40;99.90;;;;;;5071782;28;20020;-66
2021/04/06 04:25:56;;;;;;;8.40;1.90;;;1.40;99.90;;;;;;5072919;28;20444;-65
2021/04/06 04:28:21;;;;;;;10.40;2.20;;;1.40;99.90;;;;;;5072891;28;20123;-66
2021/04/06 04:30:49;;;;;;;5.87;1.70;;;1.50;99.90;;;;;;5072580;28;20028;-66
2021/04/06 04:33:15;;;;;;;5.97;1.80;;;1.60;99.90;;;;;;5073511;28;20031;-65
2021/04/06 04:35:41;;;;;;;7.50;2.38;;;1.60;99.90;;;;;;5072503;28;20036;-66
2021/04/06 04:38:07;;;;;;;13.35;2.42;;;1.60;99.90;;;;;;5072365;28;20040;-66
2021/04/06 04:40:33;;;;;;;;;;;1.60;99.90;;;;;;5072835;28;20024;-66
2021/04/06 04:42:59;;;;;;;7.15;1.95;;;1.60;99.90;;;;;;5072320;28;19927;-66
2021/04/06 04:45:25;;;;;;;11.93;2.33;;;1.50;99.90;;;;;;5072505;28;20025;-66
2021/04/06 04:47:51;;;;;;;8.68;1.75;;;1.50;99.90;;;;;;5072554;28;20079;-66
2021/04/06 04:50:19;;;;;;;5.28;1.48;;;1.40;99.90;;;;;;5072473;28;20025;-66
2021/04/06 04:52:46;;;;;;;6.32;1.70;;;1.40;99.90;;;;;;5072441;28;20032;-66
2021/04/06 04:55:14;;;;;;;11.68;2.65;;;1.40;99.90;;;;;;5072654;28;20028;-66
2021/04/06 04:57:40;;;;;;;9.63;2.92;;;1.30;99.90;;;;;;5072197;28;20029;-66
2021/04/06 05:00:06;;;;;;;10.07;2.35;;;1.30;99.90;;;;;;5072623;28;20206;-66
2021/04/06 05:02:32;;;;;;;15.07;2.47;;;1.30;99.90;;;;;;5072443;28;20029;-66
2021/04/06 05:04:58;;;;;;;15.83;2.33;;;1.40;99.90;;;;;;5073917;28;20025;-66
2021/04/06 05:07:24;;;;;;;8.77;2.47;;;1.30;99.90;;;;;;5074811;28;20266;-65
2021/04/06 05:09:50;;;;;;;7.82;2.25;;;1.20;99.90;;;;;;5074699;28;20123;-66
2021/04/06 05:12:16;;;;;;;6.22;1.95;;;1.20;99.90;;;;;;5075840;28;20497;-66
2021/04/06 05:14:41;;;;;;;10.70;2.25;;;1.20;99.90;;;;;;5076571;28;20086;-66
2021/04/06 05:17:07;;;;;;;9.13;2.30;;;1.20;99.90;;;;;;5076937;28;20104;-66
2021/04/06 05:19:33;;;;;;;7.30;2.00;;;1.20;99.90;;;;;;5076907;28;20354;-66
2021/04/06 05:21:59;;;;;;;9.17;2.73;;;1.30;99.90;;;;;;5076730;28;20024;-66
2021/04/06 05:24:24;;;;;;;21.63;6.93;;;1.40;99.90;;;;;;5076897;28;20108;-66
2021/04/06 05:26:50;;;;;;;8.47;2.03;;;1.50;99.90;;;;;;5077761;28;20060;-66
2021/04/06 05:29:16;;;;;;;8.10;2.00;;;1.50;99.90;;;;;;5076874;28;20051;-66
2021/04/06 05:31:41;;;;;;;8.93;1.60;;;1.50;99.90;;;;;;5077308;28;20036;-66
2021/04/06 05:34:07;;;;;;;14.03;2.10;;;1.60;99.90;;;;;;5076675;28;20127;-66
2021/04/06 05:36:33;;;;;;;7.13;1.88;;;1.60;99.90;;;;;;5078000;28;20370;-66
2021/04/06 05:38:59;;;;;;;9.50;2.50;;;1.70;99.90;;;;;;5079130;28;20028;-66
2021/04/06 05:41:26;;;;;;;13.10;2.00;;;1.70;99.90;;;;;;5076680;28;20826;-66
2021/04/06 05:44:04;;;;;;;6.78;2.00;;;1.70;99.90;;;;;;5076402;28;20088;-67
2021/04/06 05:46:32;;;;;;;8.07;2.22;;;1.60;99.90;;;;;;5075110;28;20023;-66
2021/04/06 05:49:11;;;;;;;10.43;2.63;;;1.60;99.90;;;;;;5077612;28;20028;-66
2021/04/06 05:51:38;;;;;;;6.63;2.20;;;1.60;99.90;;;;;;5077957;28;20017;-65
2021/04/06 05:54:05;;;;;;;10.20;2.72;;;1.60;99.90;;;;;;5076613;28;20032;-65
2021/04/06 05:56:32;;;;;;;10.10;2.17;;;1.60;99.90;;;;;;5076533;28;20028;-65
2021/04/06 05:58:58;;;;;;;6.88;3.00;;;1.50;99.90;;;;;;5075152;28;20025;-67
2021/04/06 06:01:28;;;;;;;6.95;2.30;;;1.50;99.90;;;;;;5075011;28;20375;-67
2021/04/06 06:03:55;;;;;;;12.57;2.55;;;1.40;99.90;;;;;;5075176;28;20033;-66
2021/04/06 06:06:22;;;;;;;9.65;2.47;;;1.50;99.90;;;;;;5075336;28;20035;-66
2021/04/06 06:08:51;;;;;;;11.13;2.65;;;1.40;99.90;;;;;;5073532;28;20033;-67
2021/04/06 06:11:17;;;;;;;5.82;2.17;;;1.40;99.90;;;;;;5074995;28;20025;-67
2021/04/06 06:13:43;;;;;;;9.65;2.85;;;1.50;99.90;;;;;;5073888;28;20024;-66
2021/04/06 06:16:12;;;;;;;6.97;2.03;;;1.60;99.90;;;;;;5074971;28;20078;-67
2021/04/06 06:19:07;;;;;;;14.75;2.30;;;1.70;99.90;;;;;;5073014;28;20028;-64
2021/04/06 06:21:45;;;;;;;10.77;2.58;;;1.70;99.90;;;;;;5074415;28;20024;-62
2021/04/06 06:24:29;;;;;;;7.28;2.85;;;1.70;99.90;;;;;;5074137;28;20024;-63
2021/04/06 06:26:57;;;;;;;9.43;2.42;;;1.70;99.90;;;;;;5074324;28;20020;-63
2021/04/06 06:29:24;;;;;;;10.70;2.60;;;1.70;99.90;;;;;;5074268;28;20028;-63
2021/04/06 06:31:56;;;;;;;10.02;2.58;;;1.80;99.90;;;;;;5074303;28;20135;-61
2021/04/06 06:34:35;;;;;;;9.02;2.53;;;1.80;99.90;;;;;;5074087;28;20103;-62
2021/04/06 06:37:03;;;;;;;10.18;2.40;;;1.70;99.90;;;;;;5072534;28;20111;-63
2021/04/06 06:39:29;;;;;;;13.05;3.10;;;1.80;99.90;;;;;;5073793;28;20104;-62
2021/04/06 06:42:00;;;;;;;7.00;2.28;;;2.00;99.90;;;;;;5073910;28;20030;-62
2021/04/06 06:44:27;;;;;;;94.80;9.75;;;2.10;99.90;;;;;;5073814;28;20023;-63
2021/04/06 06:47:04;;;;;;;14.32;2.60;;;2.30;99.90;;;;;;5073645;28;20381;-63
2021/04/06 06:49:38;;;;;;;7.63;2.33;;;2.40;99.90;;;;;;5073798;28;20485;-62
2021/04/06 06:52:07;;;;;;;13.35;2.35;;;2.50;99.90;;;;;;5073634;28;20031;-60
2021/04/06 06:54:40;;;;;;;6.45;2.30;;;2.50;99.90;;;;;;5073667;28;20046;-62
2021/04/06 06:57:08;;;;;;;9.07;2.08;;;2.50;99.90;;;;;;5073166;28;20401;-62
2021/04/06 06:59:44;;;;;;;8.48;2.53;;;2.40;99.90;;;;;;5073127;28;20028;-61
2021/04/06 07:02:24;;;;;;;13.07;2.30;;;2.40;99.90;;;;;;5073733;28;20029;-62
2021/04/06 07:04:51;;;;;;;14.45;2.38;;;2.60;99.90;;;;;;5072823;28;20025;-63
2021/04/06 07:07:17;;;;;;;11.07;3.63;;;2.80;99.90;;;;;;5072439;28;20032;-63
2021/04/06 07:09:44;;;;;;;8.82;2.15;;;2.90;99.90;;;;;;5073239;28;20095;-62
2021/04/06 07:12:13;;;;;;;10.93;2.30;;;2.90;99.90;;;;;;5073553;28;20086;-63
2021/04/06 07:14:40;;;;;;;8.82;2.20;;;2.90;99.90;;;;;;5071768;28;20031;-60
2021/04/06 07:17:08;;;;;;;12.18;2.63;;;2.90;99.90;;;;;;5071781;28;20078;-63
2021/04/06 07:19:41;;;;;;;8.73;2.60;;;2.80;99.90;;;;;;5072770;28;20408;-63
2021/04/06 07:22:11;;;;;;;8.68;2.58;;;2.80;99.90;;;;;;5071780;28;20021;-63
2021/04/06 07:24:39;;;;;;;10.45;2.38;;;2.70;99.90;;;;;;5073306;28;20033;-63
2021/04/06 07:27:13;;;;;;;9.15;2.53;;;2.60;99.90;;;;;;5072681;28;20028;-63
2021/04/06 07:29:39;;;;;;;8.68;2.08;;;2.60;99.90;;;;;;5073219;28;20078;-63
2021/04/06 07:32:13;;;;;;;9.20;2.33;;;2.50;99.90;;;;;;5073379;28;20033;-62
2021/04/06 07:34:41;;;;;;;13.60;2.65;;;2.50;99.90;;;;;;5073278;28;20020;-64
2021/04/06 07:37:07;;;;;;;11.30;2.78;;;2.40;99.90;;;;;;5073178;28;20055;-63
2021/04/06 07:39:34;;;;;;;13.43;3.17;;;2.40;99.90;;;;;;5073089;28;20028;-62
2021/04/06 07:42:01;;;;;;;9.23;2.47;;;2.40;99.90;;;;;;5072882;28;20052;-63
2021/04/06 07:44:26;;;;;;;;;;;2.40;99.90;;;;;;5073084;28;20081;-63
2021/04/06 07:46:53;;;;;;;12.60;2.63;;;2.40;99.90;;;;;;5072392;28;20011;-64
2021/04/06 07:49:21;;;;;;;8.88;2.15;;;2.40;99.90;;;;;;5072422;28;20021;-63
2021/04/06 07:51:54;;;;;;;7.30;2.20;;;2.50;99.90;;;;;;5072567;28;20033;-62
2021/04/06 07:54:41;;;;;;;12.95;2.80;;;2.50;99.90;;;;;;5072788;28;20082;-61
2021/04/06 07:57:07;;;;;;;10.80;3.00;;;2.50;99.90;;;;;;5072696;28;20036;-62
2021/04/06 07:59:33;;;;;;;11.25;3.00;;;2.60;99.90;;;;;;5072362;28;20481;-64
2021/04/06 08:02:01;;;;;;;9.13;2.17;;;2.70;99.90;;;;;;5072526;28;20067;-63
2021/04/06 08:04:45;;;;;;;9.13;2.97;;;2.90;99.90;;;;;;5071389;28;20025;-63
2021/04/06 08:07:20;;;;;;;11.80;2.75;;;3.10;99.90;;;;;;5072547;28;20025;-62
2021/04/06 08:09:47;;;;;;;9.15;2.70;;;3.20;99.90;;;;;;5072907;28;20025;-63
2021/04/06 08:12:15;;;;;;;12.07;2.65;;;3.30;99.90;;;;;;5072588;28;20028;-63
2021/04/06 08:14:47;;;;;;;12.75;4.10;;;3.40;99.90;;;;;;5072909;28;20084;-63
2021/04/06 08:17:27;;;;;;;8.32;2.35;;;3.60;99.90;;;;;;5072787;28;20432;-63
2021/04/06 08:19:53;;;;;;;7.25;2.58;;;3.70;99.90;;;;;;5072341;28;20043;-63
2021/04/06 08:22:23;;;;;;;;;;;3.90;99.90;;;;;;5073430;28;20028;-63
2021/04/06 08:24:49;;;;;;;8.18;2.40;;;3.90;99.90;;;;;;5072748;28;19905;-62
2021/04/06 08:27:35;;;;;;;11.05;3.55;;;3.90;99.90;;;;;;5072546;28;20032;-62
2021/04/06 08:30:19;;;;;;;8.48;2.58;;;3.90;99.90;;;;;;5072429;28;20032;-63
2021/04/06 08:32:59;;;;;;;11.00;2.78;;;3.90;99.90;;;;;;5072982;28;20029;-62
2021/04/06 08:35:46;;;;;;;12.32;3.42;;;3.80;99.90;;;;;;5072702;28;20024;-64
2021/04/06 08:38:23;;;;;;;11.85;3.40;;;3.90;99.90;;;;;;5072312;28;20029;-62
2021/04/06 08:41:01;;;;;;;;;;;3.90;99.90;;;;;;5075771;28;20537;-62
2021/04/06 08:43:46;;;;;;;12.18;2.42;;;3.80;99.90;;;;;;5075827;28;19905;-65
2021/04/06 08:46:48;;;;;;;12.52;3.40;;;3.80;99.90;;;;;;5076836;28;20020;-66
2021/04/06 08:49:26;;;;;;;11.57;2.90;;;4.00;99.90;;;;;;5076448;28;20381;-66
2021/04/06 08:51:54;;;;;;;8.23;2.67;;;4.30;99.90;;;;;;5076511;28;20021;-66
2021/04/06 08:54:30;;;;;;;7.85;2.08;;;4.50;99.90;;;;;;5075094;28;20378;-64
2021/04/06 08:56:57;;;;;;;8.05;2.53;;;4.50;99.90;;;;;;5075611;28;20059;-65
2021/04/06 08:59:33;;;;;;;;;;;4.50;99.90;;;;;;5076515;28;20020;-66
2021/04/06 09:02:09;;;;;;;8.80;2.90;;;4.40;99.90;;;;;;5076339;28;20399;-65
2021/04/06 09:04:47;;;;;;;8.43;3.00;;;4.20;99.90;;;;;;5076139;28;20051;-65
2021/04/06 09:07:20;;;;;;;10.02;2.53;;;4.10;99.90;;;;;;5075925;28;20029;-65
2021/04/06 09:09:46;;;;;;;6.80;2.22;;;4.10;99.90;;;;;;5075534;28;20024;-65
2021/04/06 09:12:13;;;;;;;12.85;2.70;;;4.10;99.90;;;;;;5074109;28;20564;-66
2021/04/06 09:14:39;;;;;;;12.30;3.25;;;4.10;99.90;;;;;;5075786;28;20420;-66
2021/04/06 09:17:05;;;;;;;9.68;2.42;;;4.10;99.90;;;;;;5075761;28;20025;-65
2021/04/06 09:19:34;;;;;;;10.63;3.17;;;4.30;99.90;;;;;;5075486;28;20025;-66
2021/04/06 09:22:04;;;;;;;12.57;2.97;;;4.50;99.90;;;;;;5075915;28;20274;-65
2021/04/06 09:24:29;;;;;;;10.10;2.40;;;4.70;99.90;;;;;;5075883;28;20016;-65
2021/04/06 09:26:56;;;;;;;8.67;3.03;;;4.80;99.90;;;;;;5075732;28;20386;-67
2021/04/06 09:29:25;;;;;;;9.43;2.88;;;4.70;99.90;;;;;;5075714;28;20492;-66
2021/04/06 09:32:03;;;;;;;10.77;2.60;;;4.50;99.90;;;;;;5075341;28;20021;-66
2021/04/06 09:34:36;;;;;;;8.63;2.70;;;4.70;99.90;;;;;;5076376;28;20029;-67
2021/04/06 09:37:05;;;;;;;8.18;2.58;;;5.20;99.30;;;;;;5074932;28;20456;-65
2021/04/06 09:39:31;;;;;;;7.28;2.60;;;6.70;97.40;;;;;;5074873;28;20016;-64
2021/04/06 09:41:58;;;;;;;7.55;2.70;;;7.50;94.50;;;;;;5075981;28;20103;-64
2021/04/06 09:44:31;;;;;;;9.20;2.35;;;7.20;94.20;;;;;;5075942;28;20461;-65
2021/04/06 09:47:02;;;;;;;6.18;2.35;;;7.60;93.40;;;;;;5075959;28;20016;-63
2021/04/06 09:49:37;;;;;;;10.50;3.40;;;8.00;92.40;;;;;;5075516;28;20044;-64
2021/04/06 09:52:27;;;;;;;12.15;3.15;;;8.20;91.70;;;;;;5074590;28;20481;-64
2021/04/06 09:54:54;;;;;;;8.82;2.42;;;8.30;91.00;;;;;;5072655;28;20041;-64
2021/04/06 09:57:22;;;;;;;9.23;2.92;;;8.40;91.00;;;;;;5075117;28;20481;-65
2021/04/06 09:59:56;;;;;;;7.80;2.85;;;8.20;91.10;;;;;;5075061;28;20367;-64
2021/04/06 10:02:24;;;;;;;8.38;3.00;;;7.80;91.80;;;;;;5075244;28;20020;-64
2021/04/06 10:04:51;;;;;;;15.70;6.50;;;7.20;91.80;;;;;;5075422;28;20100;-64
2021/04/06 10:07:21;;;;;;;8.68;4.13;;;6.90;92.40;;;;;;5075134;28;20485;-63
2021/04/06 10:09:56;;;;;;;7.95;3.00;;;7.40;91.80;;;;;;5075203;28;20029;-65
2021/04/06 10:12:24;;;;;;;11.63;2.60;;;7.40;92.00;;;;;;5073269;28;20115;-65
2021/04/06 10:14:50;;;;;;;8.82;2.55;;;7.10;91.70;;;;;;5074649;28;20024;-65
2021/04/06 10:17:22;;;;;;;7.63;2.70;;;6.80;91.70;;;;;;5074396;28;20025;-66
2021/04/06 10:20:06;;;;;;;9.35;2.53;;;6.70;92.20;;;;;;5072967;28;20025;-65
2021/04/06 10:22:47;;;;;;;7.85;2.25;;;6.90;92.10;;;;;;5074260;28;20029;-65
2021/04/06 10:25:16;;;;;;;6.30;2.45;;;6.80;91.80;;;;;;5074410;28;20025;-65
2021/04/06 10:27:51;;;;;;;7.70;2.25;;;6.70;91.10;;;;;;5074489;28;20039;-66
2021/04/06 10:30:38;;;;;;;6.80;2.20;;;7.50;90.40;;;;;;5072837;28;20394;-66
2021/04/06 10:33:06;;;;;;;8.50;2.75;;;8.00;88.80;;;;;;5070828;28;20036;-66
2021/04/06 10:35:34;;;;;;;10.23;2.83;;;8.40;86.90;;;;;;5074151;28;20032;-66
2021/04/06 10:38:02;;;;;;;8.40;2.83;;;9.00;83.80;;;;;;5072771;28;20032;-65
2021/04/06 10:40:30;;;;;;;8.98;1.98;;;9.50;82.30;;;;;;5074343;28;20124;-66
2021/04/06 10:43:01;;;;;;;7.50;2.50;;;10.60;79.10;;;;;;5073994;28;20115;-66
2021/04/06 10:45:29;;;;;;;6.50;2.25;;;11.70;73.90;;;;;;5074319;28;20019;-65
2021/04/06 10:48:15;;;;;;;6.57;2.25;;;11.80;72.60;;;;;;5073123;28;20388;-66
2021/04/06 10:50:52;;;;;;;10.10;2.67;;;11.30;70.20;;;;;;5073747;28;20024;-64
2021/04/06 10:53:33;;;;;;;7.93;3.00;;;10.30;72.10;;;;;;5072529;28;20063;-67
2021/04/06 10:56:01;;;;;;;10.55;2.72;;;9.50;76.10;;;;;;5073890;28;20343;-65
2021/04/06 10:58:30;;;;;;;7.85;2.72;;;9.70;80.30;;;;;;5073444;28;20036;-65
2021/04/06 11:01:09;;;;;;;12.10;3.20;;;10.40;78.30;;;;;;5073337;28;20013;-65
2021/04/06 11:03:43;;;;;;;6.70;2.75;;;9.60;76.70;;;;;;5073748;28;20460;-66
2021/04/06 11:06:33;;;;;;;4.45;2.05;;;9.90;77.10;;;;;;5073408;28;20073;-66
2021/04/06 11:09:00;;;;;;;8.20;2.03;;;10.30;75.60;;;;;;5071975;28;20458;-65
2021/04/06 11:11:30;;;;;;;5.32;2.10;;;10.10;74.80;;;;;;5072219;28;20028;-67
2021/04/06 11:14:02;;;;;;;7.05;2.10;;;9.80;75.30;;;;;;5071960;28;20021;-64
2021/04/06 11:16:28;;;;;;;9.02;2.88;;;9.60;75.50;;;;;;5072546;28;20025;-64
2021/04/06 11:19:13;;;;;;;8.97;2.23;;;9.10;76.80;;;;;;5073358;28;20059;-63
2021/04/06 11:21:51;;;;;;;9.38;2.53;;;8.70;76.90;;;;;;5073415;28;20255;-65
2021/04/06 11:24:19;;;;;;;4.90;1.85;;;8.30;77.80;;;;;;5071727;28;20020;-65
2021/04/06 11:26:44;;;;;;;7.43;2.10;;;8.20;79.30;;;;;;5073330;28;20468;-64
2021/04/06 11:29:13;;;;;;;7.60;2.40;;;8.10;79.90;;;;;;5073037;28;20082;-64
2021/04/06 11:31:42;;;;;;;6.88;2.40;;;8.30;79.30;;;;;;5071550;28;20127;-65
2021/04/06 11:34:09;;;;;;;7.07;2.40;;;8.40;78.10;;;;;;5071949;28;20079;-65
2021/04/06 11:36:35;;;;;;;11.65;2.45;;;8.60;76.50;;;;;;5073371;28;20020;-65
2021/04/06 11:39:05;;;;;;;8.15;2.42;;;8.50;75.90;;;;;;5072951;28;20449;-64
2021/04/06 11:41:30;;;;;;;5.88;1.85;;;8.50;76.50;;;;;;5073206;28;20025;-65
2021/04/06 11:43:56;;;;;;;8.07;2.07;;;8.60;74.40;;;;;;5073222;28;20025;-65
2021/04/06 11:46:21;;;;;;;7.33;2.07;;;8.70;74.00;;;;;;5073110;28;20032;-65
2021/04/06 11:48:47;;;;;;;3.17;1.50;;;8.70;71.60;;;;;;5072895;28;20548;-65
2021/04/06 11:51:14;;;;;;;8.82;1.95;;;8.80;71.10;;;;;;5071496;28;20028;-64
2021/04/06 11:53:40;;;;;;;7.30;1.63;;;8.90;70.00;;;;;;5071698;28;20028;-65
2021/04/06 11:56:06;;;;;;;8.10;2.00;;;9.00;70.30;;;;;;5072701;28;20035;-65
2021/04/06 11:58:32;;;;;;;7.65;2.25;;;8.90;70.00;;;;;;5071518;28;20037;-64
2021/04/06 12:00:58;;;;;;;6.75;1.85;;;8.70;69.70;;;;;;5073255;28;20197;-65
2021/04/06 12:03:25;;;;;;;5.50;1.57;;;8.60;69.50;;;;;;5073669;28;20044;-65
2021/04/06 12:05:50;;;;;;;6.18;1.98;;;8.60;71.60;;;;;;5073299;28;20488;-67
2021/04/06 12:08:16;;;;;;;5.53;1.53;;;8.70;70.70;;;;;;5072985;28;20025;-64
2021/04/06 12:10:44;;;;;;;7.47;2.10;;;8.60;70.60;;;;;;5072668;28;20063;-64
2021/04/06 12:13:10;;;;;;;4.22;1.58;;;8.20;71.60;;;;;;5073155;28;20043;-64
2021/04/06 12:15:36;;;;;;;7.03;1.98;;;7.60;75.40;;;;;;5076812;28;20385;-65
2021/04/06 12:18:03;;;;;;;4.87;2.03;;;7.10;78.40;;;;;;5076798;28;20032;-65
2021/04/06 12:20:28;;;;;;;5.38;2.13;;;6.90;81.60;;;;;;5076587;28;20111;-63
2021/04/06 12:22:54;;;;;;;7.15;2.50;;;6.80;86.00;;;;;;5076659;28;20052;-67
2021/04/06 12:25:20;;;;;;;6.73;2.50;;;6.60;87.70;;;;;;5076853;28;20423;-64
2021/04/06 12:27:46;;;;;;;7.50;2.20;;;6.20;90.50;;;;;;5076971;28;20031;-66
2021/04/06 12:30:12;;;;;;;4.07;1.30;;;5.90;93.20;;;;;;5075128;28;20024;-66
2021/04/06 12:32:38;;;;;;;4.38;1.83;;;5.30;99.40;;;;;;5075382;28;20111;-65
2021/04/06 12:35:05;;;;;;;4.53;2.10;;;4.90;99.90;;;;;;5076403;28;20445;-65
2021/04/06 12:37:32;;;;;;;5.10;2.35;;;4.40;99.90;;;;;;5076311;28;20374;-62
2021/04/06 12:39:58;;;;;;;3.53;2.13;;;4.10;99.90;;;;;;5076717;28;20023;-67
2021/04/06 12:42:24;;;;;;;5.38;2.80;;;3.80;99.90;;;;;;5074737;28;20074;-61
2021/04/06 12:44:50;;;;;;;6.03;2.87;;;3.50;99.90;;;;;;5076013;28;20037;-65
2021/04/06 12:47:16;;;;;;;8.63;2.58;;;3.40;99.90;;;;;;5076216;28;20294;-62
2021/04/06 12:49:42;;;;;;;6.22;2.60;;;3.30;99.90;;;;;;5075897;28;20086;-65
2021/04/06 12:52:07;;;;;;;6.47;3.07;;;3.30;99.90;;;;;;5076084;28;20070;-58
2021/04/06 12:54:33;;;;;;;9.37;2.03;;;3.20;99.90;;;;;;5076221;28;20503;-65
2021/04/06 12:56:59;;;;;;;5.93;2.00;;;3.30;99.90;;;;;;5075914;28;20036;-63
2021/04/06 12:59:25;;;;;;;6.33;1.97;;;3.40;99.90;;;;;;5075845;28;20025;-66
2021/04/06 13:01:50;;;;;;;3.60;1.85;;;3.70;99.90;;;;;;5074431;28;20262;-62
2021/04/06 13:04:16;;;;;;;6.07;2.20;;;3.90;99.90;;;;;;5076387;28;20169;-63
2021/04/06 13:06:42;;;;;;;7.15;2.03;;;4.20;99.90;;;;;;5074469;28;20504;-63
2021/04/06 13:09:08;;;;;;;5.37;2.07;;;4.50;99.90;;;;;;5076143;28;20393;-61